createdAt,value
2023-04-17T00:00:02.281Z,0.00
2023-04-17T00:01:02.327Z,0.00
2023-04-17T00:02:02.333Z,0.00
2023-04-17T00:03:02.375Z,0.00
2023-04-17T00:04:02.435Z,0.00
2023-04-17T00:05:02.301Z,0.00
2023-04-17T00:06:02.209Z,0.00
2023-04-17T00:07:02.225Z,0.00
2023-04-17T00:08:02.242Z,0.00
2023-04-17T00:09:02.265Z,0.00
2023-04-17T00:10:02.160Z,0.00
2023-04-17T00:11:08.119Z,0.00
2023-04-17T00:12:03.122Z,0.00
2023-04-17T00:13:02.120Z,0.00
2023-04-17T00:14:02.205Z,0.00
2023-04-17T00:15:02.138Z,0.00
2023-04-17T00:16:02.177Z,0.00
2023-04-17T00:17:02.148Z,0.00
2023-04-17T00:18:02.139Z,0.00
2023-04-17T00:19:02.143Z,0.00
2023-04-17T00:20:02.061Z,0.00
2023-04-17T00:21:02.066Z,0.00
2023-04-17T00:22:02.024Z,0.00
2023-04-17T00:23:02.106Z,0.00
2023-04-17T00:24:02.043Z,0.00
2023-04-17T00:25:02.029Z,0.00
2023-04-17T00:26:02.018Z,0.00
2023-04-17T00:27:01.993Z,0.00
2023-04-17T00:28:02.024Z,0.00
2023-04-17T00:29:01.988Z,0.00
2023-04-17T00:30:02.106Z,0.00
2023-04-17T00:31:01.945Z,0.00
2023-04-17T00:32:02.057Z,0.00
2023-04-17T00:33:02.045Z,0.00
2023-04-17T00:34:01.950Z,0.00
2023-04-17T00:35:01.923Z,0.00
2023-04-17T00:36:02.042Z,0.00
2023-04-17T00:37:01.879Z,0.00
2023-04-17T00:38:01.959Z,0.00
2023-04-17T00:39:01.891Z,0.00
2023-04-17T00:40:01.948Z,0.00
2023-04-17T00:41:01.855Z,0.00
2023-04-17T00:42:01.867Z,0.00
2023-04-17T00:43:01.853Z,0.00
2023-04-17T00:44:01.849Z,0.00
2023-04-17T00:45:01.860Z,0.00
2023-04-17T00:46:01.949Z,0.00
2023-04-17T00:47:01.816Z,0.00
2023-04-17T00:48:01.817Z,0.00
2023-04-17T00:49:01.797Z,0.00
2023-04-17T00:50:01.742Z,0.00
2023-04-17T00:51:01.816Z,0.00
2023-04-17T00:52:01.748Z,0.00
2023-04-17T00:53:01.699Z,0.00
2023-04-17T00:54:01.805Z,0.00
2023-04-17T00:55:01.695Z,0.00
2023-04-17T00:56:01.651Z,0.00
2023-04-17T00:57:01.715Z,0.00
2023-04-17T00:58:01.663Z,0.00
2023-04-17T00:59:01.618Z,0.00
2023-04-17T01:00:01.626Z,0.00
2023-04-17T01:01:01.618Z,0.00
2023-04-17T01:02:01.667Z,0.00
2023-04-17T01:03:01.841Z,0.00
2023-04-17T01:04:01.729Z,0.00
2023-04-17T01:05:01.589Z,0.00
2023-04-17T01:06:01.554Z,0.00
2023-04-17T01:07:01.601Z,0.00
2023-04-17T01:08:01.577Z,0.00
2023-04-17T01:09:01.518Z,0.00
2023-04-17T01:10:01.527Z,0.00
2023-04-17T01:11:01.553Z,0.00
2023-04-17T01:12:01.573Z,0.00
2023-04-17T01:13:01.479Z,0.00
2023-04-17T01:14:01.561Z,0.00
2023-04-17T01:15:01.464Z,0.00
2023-04-17T01:16:01.450Z,0.00
2023-04-17T01:17:01.638Z,0.00
2023-04-17T01:18:01.465Z,0.00
2023-04-17T01:19:01.424Z,0.00
2023-04-17T01:20:01.418Z,0.00
2023-04-17T01:21:01.384Z,0.00
2023-04-17T01:22:01.357Z,0.00
2023-04-17T01:23:01.404Z,0.00
2023-04-17T01:24:01.341Z,0.00
2023-04-17T01:25:01.426Z,0.00
2023-04-17T01:26:01.325Z,0.00
2023-04-17T01:27:01.311Z,0.00
2023-04-17T01:28:01.367Z,0.00
2023-04-17T01:29:01.365Z,0.00
2023-04-17T01:30:01.310Z,0.00
2023-04-17T01:31:01.384Z,0.00
2023-04-17T01:32:01.261Z,0.00
2023-04-17T01:33:01.327Z,0.00
2023-04-17T01:34:01.227Z,0.00
2023-04-17T01:35:01.244Z,0.00
2023-04-17T01:36:01.311Z,0.00
2023-04-17T01:37:01.236Z,0.00
2023-04-17T01:38:01.236Z,0.00
2023-04-17T01:39:01.241Z,0.00
2023-04-17T01:40:01.198Z,0.00
2023-04-17T01:41:01.206Z,0.00
2023-04-17T01:42:01.189Z,0.00
2023-04-17T01:43:01.187Z,0.00
2023-04-17T01:44:01.173Z,0.00
2023-04-17T01:45:01.148Z,0.00
2023-04-17T01:46:01.158Z,0.00
2023-04-17T01:47:01.205Z,0.00
2023-04-17T01:48:01.258Z,0.00
2023-04-17T01:49:01.121Z,0.00
2023-04-17T01:50:01.094Z,0.00
2023-04-17T01:51:01.072Z,0.00
2023-04-17T01:52:01.063Z,0.00
2023-04-17T01:53:01.075Z,0.00
2023-04-17T01:54:01.010Z,0.00
2023-04-17T01:55:01.045Z,0.00
2023-04-17T01:56:01.011Z,0.00
2023-04-17T01:57:00.982Z,0.00
2023-04-17T01:58:00.971Z,0.00
2023-04-17T01:59:00.960Z,0.00
2023-04-17T02:00:01.135Z,0.00
2023-04-17T02:01:00.937Z,0.00
2023-04-17T02:02:01.062Z,0.00
2023-04-17T02:03:01.168Z,0.00
2023-04-17T02:04:01.017Z,0.00
2023-04-17T02:05:00.911Z,0.00
2023-04-17T02:06:00.996Z,0.00
2023-04-17T02:07:00.871Z,0.00
2023-04-17T02:08:00.860Z,0.00
2023-04-17T02:09:00.895Z,0.00
2023-04-17T02:10:00.855Z,0.00
2023-04-17T02:11:00.838Z,0.00
2023-04-17T02:12:00.947Z,0.00
2023-04-17T02:13:00.830Z,0.00
2023-04-17T02:14:00.802Z,0.00
2023-04-17T02:15:00.828Z,0.00
2023-04-17T02:16:00.848Z,0.00
2023-04-17T02:17:00.763Z,0.00
2023-04-17T02:18:00.815Z,0.00
2023-04-17T02:19:00.745Z,0.00
2023-04-17T02:20:00.910Z,0.00
2023-04-17T02:21:00.723Z,0.00
2023-04-17T02:22:00.705Z,0.00
2023-04-17T02:23:00.707Z,0.00
2023-04-17T02:24:00.679Z,0.00
2023-04-17T02:25:00.690Z,0.00
2023-04-17T02:26:00.754Z,0.00
2023-04-17T02:27:00.698Z,0.00
2023-04-17T02:28:00.717Z,0.00
2023-04-17T02:29:00.735Z,0.00
2023-04-17T02:30:00.673Z,0.00
2023-04-17T02:31:00.665Z,0.00
2023-04-17T02:32:00.592Z,0.00
2023-04-17T02:33:00.709Z,0.00
2023-04-17T02:34:00.646Z,0.00
2023-04-17T02:35:00.577Z,0.00
2023-04-17T02:36:00.540Z,0.00
2023-04-17T02:37:00.562Z,0.00
2023-04-17T02:38:00.587Z,0.00
2023-04-17T02:39:00.523Z,0.00
2023-04-17T02:40:00.506Z,0.00
2023-04-17T02:41:00.577Z,0.00
2023-04-17T02:42:00.497Z,0.00
2023-04-17T02:43:00.506Z,0.00
2023-04-17T02:44:00.466Z,0.00
2023-04-17T02:45:00.499Z,0.00
2023-04-17T02:46:00.486Z,0.00
2023-04-17T02:47:00.676Z,0.00
2023-04-17T02:48:00.479Z,0.00
2023-04-17T02:49:00.487Z,0.00
2023-04-17T02:50:00.507Z,0.00
2023-04-17T02:51:00.437Z,0.00
2023-04-17T02:52:00.383Z,0.00
2023-04-17T02:53:00.449Z,0.00
2023-04-17T02:54:00.417Z,0.00
2023-04-17T02:55:00.360Z,0.00
2023-04-17T02:56:00.394Z,0.00
2023-04-17T02:57:00.325Z,0.00
2023-04-17T02:58:00.376Z,0.00
2023-04-17T02:59:00.362Z,0.00
2023-04-17T03:00:00.292Z,0.00
2023-04-17T03:01:00.459Z,0.00
2023-04-17T03:02:00.343Z,0.00
2023-04-17T03:03:00.491Z,0.00
2023-04-17T03:04:00.429Z,0.00
2023-04-17T03:05:00.262Z,0.00
2023-04-17T03:06:00.281Z,0.00
2023-04-17T03:07:00.222Z,0.00
2023-04-17T03:08:00.261Z,0.00
2023-04-17T03:09:00.231Z,0.00
2023-04-17T03:10:00.198Z,0.00
2023-04-17T03:11:00.170Z,0.00
2023-04-17T03:12:00.206Z,0.00
2023-04-17T03:13:00.167Z,0.00
2023-04-17T03:14:00.172Z,0.00
2023-04-17T03:15:00.151Z,0.00
2023-04-17T03:16:00.180Z,0.00
2023-04-17T03:17:00.141Z,0.00
2023-04-17T03:18:00.149Z,0.00
2023-04-17T03:19:00.125Z,0.00
2023-04-17T03:20:00.159Z,0.00
2023-04-17T03:21:00.112Z,0.00
2023-04-17T03:22:00.091Z,0.00
2023-04-17T03:23:00.183Z,0.00
2023-04-17T03:24:00.112Z,0.00
2023-04-17T03:25:00.025Z,0.00
2023-04-17T03:26:00.011Z,0.00
2023-04-17T03:27:00.037Z,0.00
2023-04-17T03:28:00.004Z,0.00
2023-04-17T03:28:59.978Z,0.00
2023-04-17T03:30:00.090Z,0.00
2023-04-17T03:30:59.958Z,0.00
2023-04-17T03:32:00.013Z,0.00
2023-04-17T03:33:00.012Z,0.00
2023-04-17T03:34:00.004Z,0.00
2023-04-17T03:34:59.953Z,0.00
2023-04-17T03:35:59.902Z,0.00
2023-04-17T03:36:59.964Z,0.00
2023-04-17T03:37:59.902Z,0.00
2023-04-17T03:38:59.890Z,0.00
2023-04-17T03:39:59.855Z,0.00
2023-04-17T03:40:59.844Z,0.00
2023-04-17T03:41:59.893Z,0.00
2023-04-17T03:42:59.819Z,0.00
2023-04-17T03:43:59.844Z,0.00
2023-04-17T03:44:59.809Z,0.00
2023-04-17T03:45:59.862Z,0.00
2023-04-17T03:46:59.814Z,0.00
2023-04-17T03:47:59.891Z,0.00
2023-04-17T03:48:59.782Z,0.00
2023-04-17T03:49:59.773Z,0.00
2023-04-17T03:50:59.758Z,0.00
2023-04-17T03:51:59.759Z,0.00
2023-04-17T03:52:59.862Z,0.00
2023-04-17T03:53:59.707Z,0.00
2023-04-17T03:54:59.700Z,0.00
2023-04-17T03:55:59.804Z,0.00
2023-04-17T03:56:59.758Z,0.00
2023-04-17T03:57:59.657Z,0.00
2023-04-17T03:58:59.687Z,0.00
2023-04-17T03:59:59.688Z,0.00
2023-04-17T04:00:59.614Z,0.00
2023-04-17T04:01:59.876Z,0.00
2023-04-17T04:02:59.810Z,0.00
2023-04-17T04:03:59.781Z,0.00
2023-04-17T04:04:59.631Z,0.00
2023-04-17T04:05:59.557Z,0.00
2023-04-17T04:06:59.675Z,0.00
2023-04-17T04:07:59.606Z,0.00
2023-04-17T04:08:59.625Z,0.00
2023-04-17T04:09:59.625Z,0.00
2023-04-17T04:10:59.581Z,0.00
2023-04-17T04:11:59.586Z,0.00
2023-04-17T04:12:59.521Z,0.00
2023-04-17T04:13:59.504Z,0.00
2023-04-17T04:14:59.518Z,0.00
2023-04-17T04:15:59.525Z,0.00
2023-04-17T04:16:59.578Z,0.00
2023-04-17T04:17:59.497Z,0.00
2023-04-17T04:18:59.428Z,0.00
2023-04-17T04:19:59.400Z,0.00
2023-04-17T04:20:59.560Z,0.00
2023-04-17T04:21:59.444Z,0.00
2023-04-17T04:22:59.373Z,0.00
2023-04-17T04:23:59.376Z,0.00
2023-04-17T04:24:59.462Z,0.00
2023-04-17T04:25:59.358Z,0.00
2023-04-17T04:26:59.337Z,0.00
2023-04-17T04:27:59.415Z,0.00
2023-04-17T04:28:59.363Z,0.00
2023-04-17T04:29:59.336Z,0.00
2023-04-17T04:30:59.521Z,0.00
2023-04-17T04:31:59.402Z,0.00
2023-04-17T04:32:59.378Z,0.00
2023-04-17T04:33:59.270Z,0.00
2023-04-17T04:34:59.593Z,0.00
2023-04-17T04:35:59.306Z,0.00
2023-04-17T04:36:59.330Z,0.00
2023-04-17T04:37:59.282Z,0.00
2023-04-17T04:38:59.306Z,0.00
2023-04-17T04:39:59.204Z,0.00
2023-04-17T04:40:59.271Z,0.00
2023-04-17T04:41:59.182Z,0.00
2023-04-17T04:42:59.152Z,0.00
2023-04-17T04:43:59.202Z,0.00
2023-04-17T04:44:59.180Z,0.00
2023-04-17T04:45:59.224Z,0.00
2023-04-17T04:46:59.640Z,0.00
2023-04-17T04:47:59.194Z,0.00
2023-04-17T04:48:59.193Z,0.00
2023-04-17T04:49:59.124Z,0.00
2023-04-17T04:50:59.070Z,0.00
2023-04-17T04:51:59.119Z,0.00
2023-04-17T04:52:59.087Z,0.00
2023-04-17T04:53:59.254Z,0.00
2023-04-17T04:54:59.098Z,0.00
2023-04-17T04:55:59.026Z,0.00
2023-04-17T04:56:58.992Z,0.00
2023-04-17T04:57:59.101Z,0.00
2023-04-17T04:58:59.142Z,0.00
2023-04-17T04:59:58.964Z,0.00
2023-04-17T05:00:59.011Z,0.00
2023-04-17T05:01:59.091Z,0.00
2023-04-17T05:02:59.230Z,0.00
2023-04-17T05:03:59.313Z,0.00
2023-04-17T05:04:58.977Z,0.00
2023-04-17T05:05:58.907Z,0.00
2023-04-17T05:06:58.990Z,0.00
2023-04-17T05:07:58.919Z,0.00
2023-04-17T05:08:58.869Z,0.00
2023-04-17T05:09:58.862Z,0.00
2023-04-17T05:10:58.869Z,0.00
2023-04-17T05:11:58.890Z,0.00
2023-04-17T05:12:58.916Z,0.00
2023-04-17T05:13:58.866Z,0.00
2023-04-17T05:14:58.850Z,0.00
2023-04-17T05:16:01.334Z,0.00
2023-04-17T05:16:58.799Z,0.00
2023-04-17T05:17:58.858Z,0.00
2023-04-17T05:18:58.762Z,0.00
2023-04-17T05:19:58.816Z,0.00
2023-04-17T05:20:59.066Z,0.00
2023-04-17T05:21:58.751Z,0.00
2023-04-17T05:22:58.814Z,0.00
2023-04-17T05:23:58.715Z,0.00
2023-04-17T05:24:58.707Z,0.00
2023-04-17T05:25:58.713Z,0.00
2023-04-17T05:26:58.691Z,0.00
2023-04-17T05:27:58.685Z,0.00
2023-04-17T05:28:58.658Z,0.00
2023-04-17T05:29:58.682Z,0.00
2023-04-17T05:30:58.652Z,0.00
2023-04-17T05:31:58.718Z,0.00
2023-04-17T05:32:58.785Z,0.00
2023-04-17T05:33:58.697Z,0.00
2023-04-17T05:34:58.710Z,0.00
2023-04-17T05:35:58.620Z,0.00
2023-04-17T05:36:58.706Z,0.00
2023-04-17T05:37:58.601Z,0.00
2023-04-17T05:38:58.722Z,0.00
2023-04-17T05:39:58.591Z,0.00
2023-04-17T05:40:58.535Z,0.00
2023-04-17T05:41:58.508Z,0.00
2023-04-17T05:42:58.508Z,0.00
2023-04-17T05:43:58.538Z,0.00
2023-04-17T05:44:58.484Z,0.00
2023-04-17T05:45:58.727Z,0.00
2023-04-17T05:46:58.452Z,0.00
2023-04-17T05:47:58.713Z,0.00
2023-04-17T05:48:58.635Z,0.00
2023-04-17T05:49:58.593Z,0.00
2023-04-17T05:50:58.441Z,0.00
2023-04-17T05:51:58.529Z,0.00
2023-04-17T05:52:58.497Z,0.00
2023-04-17T05:53:58.473Z,0.00
2023-04-17T05:54:58.463Z,0.00
2023-04-17T05:55:58.450Z,0.00
2023-04-17T05:56:58.348Z,0.00
2023-04-17T05:57:58.504Z,0.00
2023-04-17T05:58:58.454Z,0.00
2023-04-17T05:59:58.348Z,0.00
2023-04-17T06:00:58.299Z,0.00
2023-04-17T06:01:58.362Z,0.00
2023-04-17T06:02:58.453Z,0.00
2023-04-17T06:03:58.533Z,0.00
2023-04-17T06:04:58.605Z,0.00
2023-04-17T06:05:58.471Z,0.00
2023-04-17T06:06:58.338Z,0.00
2023-04-17T06:07:58.216Z,0.00
2023-04-17T06:08:58.224Z,0.00
2023-04-17T06:09:58.217Z,0.00
2023-04-17T06:10:58.217Z,0.00
2023-04-17T06:11:58.201Z,0.00
2023-04-17T06:12:58.216Z,0.00
2023-04-17T06:13:58.210Z,5.62
2023-04-17T06:14:58.175Z,5.62
2023-04-17T06:15:58.171Z,5.62
2023-04-17T06:16:58.349Z,5.62
2023-04-17T06:17:58.170Z,5.62
2023-04-17T06:18:58.116Z,5.62
2023-04-17T06:19:58.122Z,5.62
2023-04-17T06:20:58.197Z,5.62
2023-04-17T06:21:58.079Z,5.62
2023-04-17T06:22:58.076Z,5.62
2023-04-17T06:23:58.052Z,5.62
2023-04-17T06:24:58.166Z,5.62
2023-04-17T06:25:58.040Z,5.62
2023-04-17T06:26:58.052Z,5.62
2023-04-17T06:27:58.041Z,5.62
2023-04-17T06:28:58.028Z,5.62
2023-04-17T06:29:58.016Z,5.62
2023-04-17T06:30:58.006Z,5.62
2023-04-17T06:31:58.029Z,5.62
2023-04-17T06:32:58.021Z,5.62
2023-04-17T06:33:57.978Z,5.62
2023-04-17T06:34:59.700Z,5.62
2023-04-17T06:35:57.930Z,5.62
2023-04-17T06:36:57.949Z,5.62
2023-04-17T06:37:57.930Z,5.62
2023-04-17T06:38:57.882Z,5.62
2023-04-17T06:39:58.093Z,5.62
2023-04-17T06:40:57.964Z,5.62
2023-04-17T06:41:57.937Z,5.62
2023-04-17T06:42:57.854Z,5.62
2023-04-17T06:43:58.056Z,5.62
2023-04-17T06:44:57.823Z,5.62
2023-04-17T06:45:57.846Z,5.62
2023-04-17T06:46:57.851Z,5.62
2023-04-17T06:47:57.879Z,5.62
2023-04-17T06:48:57.832Z,5.62
2023-04-17T06:49:57.817Z,5.62
2023-04-17T06:50:57.748Z,5.62
2023-04-17T06:51:57.831Z,5.62
2023-04-17T06:52:57.963Z,5.62
2023-04-17T06:53:57.775Z,5.62
2023-04-17T06:54:57.791Z,5.62
2023-04-17T06:55:57.738Z,5.62
2023-04-17T06:56:57.835Z,5.62
2023-04-17T06:57:57.748Z,5.62
2023-04-17T06:58:57.937Z,5.62
2023-04-17T06:59:57.705Z,5.62
2023-04-17T07:00:57.774Z,5.62
2023-04-17T07:01:57.777Z,5.62
2023-04-17T07:02:57.796Z,5.62
2023-04-17T07:03:57.692Z,5.62
2023-04-17T07:04:57.826Z,5.62
2023-04-17T07:05:57.594Z,5.62
2023-04-17T07:06:57.673Z,5.62
2023-04-17T07:07:57.650Z,5.62
2023-04-17T07:08:57.626Z,5.62
2023-04-17T07:09:57.596Z,0.00
2023-04-17T07:10:57.545Z,0.00
2023-04-17T07:11:57.779Z,0.00
2023-04-17T07:12:57.594Z,0.00
2023-04-17T07:13:57.582Z,0.00
2023-04-17T07:14:57.686Z,0.00
2023-04-17T07:15:57.627Z,0.00
2023-04-17T07:16:57.553Z,0.00
2023-04-17T07:17:57.558Z,0.00
2023-04-17T07:18:57.456Z,0.00
2023-04-17T07:19:57.444Z,0.00
2023-04-17T07:20:57.470Z,0.00
2023-04-17T07:21:57.572Z,0.00
2023-04-17T07:22:57.427Z,0.00
2023-04-17T07:23:57.416Z,0.00
2023-04-17T07:24:57.441Z,0.00
2023-04-17T07:25:57.393Z,0.00
2023-04-17T07:26:57.413Z,0.00
2023-04-17T07:27:57.431Z,0.00
2023-04-17T07:28:57.377Z,0.00
2023-04-17T07:29:57.401Z,0.00
2023-04-17T07:30:57.329Z,0.00
2023-04-17T07:31:57.483Z,0.00
2023-04-17T07:32:57.317Z,0.00
2023-04-17T07:33:57.361Z,0.00
2023-04-17T07:34:57.304Z,0.00
2023-04-17T07:35:57.302Z,0.00
2023-04-17T07:36:57.311Z,5.62
2023-04-17T07:37:57.324Z,5.62
2023-04-17T07:38:57.355Z,5.62
2023-04-17T07:39:57.313Z,5.62
2023-04-17T07:40:57.264Z,5.62
2023-04-17T07:41:57.344Z,5.62
2023-04-17T07:42:57.199Z,5.62
2023-04-17T07:43:58.948Z,5.62
2023-04-17T07:44:57.287Z,5.62
2023-04-17T07:45:57.206Z,5.62
2023-04-17T07:46:57.249Z,11.25
2023-04-17T07:47:57.194Z,11.25
2023-04-17T07:48:57.154Z,11.25
2023-04-17T07:49:57.218Z,16.88
2023-04-17T07:50:57.173Z,16.88
2023-04-17T07:51:57.143Z,16.88
2023-04-17T07:52:57.105Z,16.88
2023-04-17T07:53:57.141Z,16.88
2023-04-17T07:54:57.101Z,16.88
2023-04-17T07:55:57.134Z,16.88
2023-04-17T07:56:57.119Z,16.88
2023-04-17T07:57:57.052Z,16.88
2023-04-17T07:58:57.008Z,16.88
2023-04-17T07:59:57.079Z,16.88
2023-04-17T08:00:57.022Z,22.50
2023-04-17T08:01:57.303Z,22.50
2023-04-17T08:02:57.142Z,22.50
2023-04-17T08:03:57.222Z,22.50
2023-04-17T08:04:57.078Z,22.50
2023-04-17T08:05:57.047Z,28.12
2023-04-17T08:06:57.067Z,28.12
2023-04-17T08:07:56.898Z,33.75
2023-04-17T08:08:56.927Z,33.75
2023-04-17T08:09:56.913Z,33.75
2023-04-17T08:10:56.920Z,33.75
2023-04-17T08:11:58.174Z,33.75
2023-04-17T08:12:56.847Z,33.75
2023-04-17T08:13:56.950Z,33.75
2023-04-17T08:14:56.926Z,33.75
2023-04-17T08:15:56.897Z,33.75
2023-04-17T08:16:56.947Z,39.38
2023-04-17T08:17:56.854Z,39.38
2023-04-17T08:18:56.977Z,33.75
2023-04-17T08:19:56.794Z,39.38
2023-04-17T08:20:56.781Z,28.12
2023-04-17T08:21:56.754Z,28.12
2023-04-17T08:22:56.888Z,33.75
2023-04-17T08:23:56.749Z,28.12
2023-04-17T08:24:56.828Z,22.50
2023-04-17T08:25:56.780Z,22.50
2023-04-17T08:26:56.745Z,16.88
2023-04-17T08:27:56.809Z,16.88
2023-04-17T08:28:56.702Z,16.88
2023-04-17T08:29:56.742Z,16.88
2023-04-17T08:30:56.849Z,11.25
2023-04-17T08:32:12.763Z,11.25
2023-04-17T08:32:57.851Z,11.25
2023-04-17T08:34:10.356Z,11.25
2023-04-17T08:34:57.652Z,5.62
2023-04-17T08:35:56.619Z,5.62
2023-04-17T08:36:56.625Z,5.62
2023-04-17T08:37:56.724Z,11.25
2023-04-17T08:38:56.658Z,11.25
2023-04-17T08:39:56.558Z,11.25
2023-04-17T08:40:56.687Z,11.25
2023-04-17T08:41:56.684Z,11.25
2023-04-17T08:42:56.550Z,11.25
2023-04-17T08:43:56.553Z,16.88
2023-04-17T08:44:56.627Z,22.50
2023-04-17T08:45:58.574Z,22.50
2023-04-17T08:46:56.504Z,28.12
2023-04-17T08:47:56.544Z,28.12
2023-04-17T08:48:56.469Z,22.50
2023-04-17T08:49:56.446Z,16.88
2023-04-17T08:50:56.439Z,22.50
2023-04-17T08:51:56.436Z,22.50
2023-04-17T08:52:56.483Z,33.75
2023-04-17T08:53:56.446Z,45.00
2023-04-17T08:54:56.425Z,39.38
2023-04-17T08:55:56.378Z,39.38
2023-04-17T08:56:56.474Z,84.38
2023-04-17T08:57:57.581Z,61.88
2023-04-17T08:58:56.393Z,45.00
2023-04-17T08:59:56.378Z,39.38
2023-04-17T09:00:56.343Z,33.75
2023-04-17T09:01:56.418Z,56.25
2023-04-17T09:02:56.475Z,28.12
2023-04-17T09:03:56.444Z,22.50
2023-04-17T09:04:56.510Z,22.50
2023-04-17T09:05:56.271Z,28.12
2023-04-17T09:06:56.270Z,33.75
2023-04-17T09:07:56.248Z,22.50
2023-04-17T09:08:56.258Z,16.88
2023-04-17T09:09:56.249Z,22.50
2023-04-17T09:10:56.231Z,22.50
2023-04-17T09:11:56.209Z,16.88
2023-04-17T09:12:56.219Z,16.88
2023-04-17T09:13:56.213Z,16.88
2023-04-17T09:14:56.233Z,16.88
2023-04-17T09:15:56.179Z,22.50
2023-04-17T09:16:56.149Z,84.38
2023-04-17T09:17:56.179Z,61.88
2023-04-17T09:18:56.162Z,28.12
2023-04-17T09:19:56.125Z,73.12
2023-04-17T09:20:56.133Z,78.75
2023-04-17T09:21:56.108Z,78.75
2023-04-17T09:22:56.109Z,73.12
2023-04-17T09:23:56.124Z,73.12
2023-04-17T09:24:57.698Z,56.25
2023-04-17T09:25:56.046Z,78.75
2023-04-17T09:26:56.043Z,56.25
2023-04-17T09:27:56.066Z,73.12
2023-04-17T09:28:56.054Z,78.75
2023-04-17T09:29:56.109Z,73.12
2023-04-17T09:30:56.137Z,78.75
2023-04-17T09:31:56.055Z,84.38
2023-04-17T09:32:56.008Z,84.38
2023-04-17T09:33:55.977Z,45.00
2023-04-17T09:34:55.982Z,33.75
2023-04-17T09:35:57.006Z,28.12
2023-04-17T09:36:57.055Z,16.88
2023-04-17T09:37:55.918Z,16.88
2023-04-17T09:38:55.936Z,16.88
2023-04-17T09:39:55.934Z,16.88
2023-04-17T09:40:55.898Z,16.88
2023-04-17T09:41:55.907Z,33.75
2023-04-17T09:42:55.894Z,33.75
2023-04-17T09:43:55.857Z,16.88
2023-04-17T09:44:55.862Z,16.88
2023-04-17T09:45:55.859Z,16.88
2023-04-17T09:46:55.898Z,16.88
2023-04-17T09:47:55.942Z,16.88
2023-04-17T09:48:55.824Z,16.88
2023-04-17T09:49:55.849Z,22.50
2023-04-17T09:50:55.775Z,22.50
2023-04-17T09:51:55.787Z,22.50
2023-04-17T09:52:55.749Z,28.12
2023-04-17T09:53:55.730Z,84.38
2023-04-17T09:54:55.770Z,84.38
2023-04-17T09:55:55.746Z,33.75
2023-04-17T09:56:55.713Z,33.75
2023-04-17T09:57:55.719Z,33.75
2023-04-17T09:58:55.739Z,33.75
2023-04-17T09:59:55.670Z,78.75
2023-04-17T10:00:55.686Z,28.12
2023-04-17T10:01:55.809Z,22.50
2023-04-17T10:02:55.907Z,28.12
2023-04-17T10:03:55.991Z,39.38
2023-04-17T10:04:55.608Z,39.38
2023-04-17T10:05:55.658Z,33.75
2023-04-17T10:06:55.693Z,28.12
2023-04-17T10:07:55.614Z,39.38
2023-04-17T10:08:55.597Z,61.88
2023-04-17T10:09:55.587Z,84.38
2023-04-17T10:10:55.596Z,84.38
2023-04-17T10:11:55.580Z,78.75
2023-04-17T10:12:55.525Z,73.12
2023-04-17T10:13:55.530Z,78.75
2023-04-17T10:14:55.513Z,84.38
2023-04-17T10:15:55.511Z,84.38
2023-04-17T10:16:55.581Z,45.00
2023-04-17T10:17:55.592Z,45.00
2023-04-17T10:18:55.483Z,78.75
2023-04-17T10:19:55.519Z,78.75
2023-04-17T10:20:55.527Z,78.75
2023-04-17T10:21:55.424Z,78.75
2023-04-17T10:22:55.423Z,84.38
2023-04-17T10:23:55.473Z,39.38
2023-04-17T10:24:55.419Z,39.38
2023-04-17T10:25:55.424Z,39.38
2023-04-17T10:26:55.372Z,84.38
2023-04-17T10:27:55.384Z,84.38
2023-04-17T10:28:55.394Z,73.12
2023-04-17T10:29:55.468Z,84.38
2023-04-17T10:30:55.622Z,84.38
2023-04-17T10:31:55.412Z,33.75
2023-04-17T10:32:55.473Z,22.50
2023-04-17T10:33:55.345Z,22.50
2023-04-17T10:34:55.348Z,28.12
2023-04-17T10:35:55.324Z,61.88
2023-04-17T10:36:55.433Z,39.38
2023-04-17T10:37:55.290Z,73.12
2023-04-17T10:38:55.349Z,28.12
2023-04-17T10:39:55.268Z,22.50
2023-04-17T10:40:55.255Z,28.12
2023-04-17T10:41:55.277Z,28.12
2023-04-17T10:42:55.200Z,33.75
2023-04-17T10:43:55.187Z,33.75
2023-04-17T10:44:55.178Z,39.38
2023-04-17T10:45:55.361Z,73.12
2023-04-17T10:46:55.154Z,84.38
2023-04-17T10:47:55.265Z,84.38
2023-04-17T10:48:55.200Z,84.38
2023-04-17T10:49:55.138Z,33.75
2023-04-17T10:50:55.231Z,22.50
2023-04-17T10:51:55.097Z,22.50
2023-04-17T10:52:55.124Z,16.88
2023-04-17T10:53:55.072Z,16.88
2023-04-17T10:54:55.133Z,16.88
2023-04-17T10:55:55.087Z,22.50
2023-04-17T10:56:55.102Z,22.50
2023-04-17T10:57:55.123Z,22.50
2023-04-17T10:58:55.032Z,22.50
2023-04-17T10:59:55.031Z,22.50
2023-04-17T11:00:55.038Z,22.50
2023-04-17T11:01:55.104Z,33.75
2023-04-17T11:02:55.152Z,22.50
2023-04-17T11:03:55.121Z,50.62
2023-04-17T11:04:55.066Z,50.62
2023-04-17T11:05:55.033Z,56.25
2023-04-17T11:06:54.997Z,50.62
2023-04-17T11:07:54.926Z,33.75
2023-04-17T11:08:56.786Z,45.00
2023-04-17T11:09:54.953Z,45.00
2023-04-17T11:10:54.895Z,45.00
2023-04-17T11:11:54.921Z,50.62
2023-04-17T11:12:54.870Z,45.00
2023-04-17T11:13:54.905Z,28.12
2023-04-17T11:14:54.935Z,33.75
2023-04-17T11:16:02.438Z,33.75
2023-04-17T11:16:54.863Z,28.12
2023-04-17T11:17:54.900Z,33.75
2023-04-17T11:18:54.817Z,22.50
2023-04-17T11:19:54.827Z,22.50
2023-04-17T11:20:54.824Z,22.50
2023-04-17T11:21:54.794Z,28.12
2023-04-17T11:22:54.765Z,50.62
2023-04-17T11:23:54.766Z,33.75
2023-04-17T11:24:54.738Z,28.12
2023-04-17T11:25:54.746Z,28.12
2023-04-17T11:26:54.713Z,28.12
2023-04-17T11:27:54.723Z,33.75
2023-04-17T11:28:54.698Z,22.50
2023-04-17T11:29:54.687Z,28.12
2023-04-17T11:30:54.698Z,39.38
2023-04-17T11:31:54.754Z,50.62
2023-04-17T11:32:54.696Z,56.25
2023-04-17T11:33:54.638Z,33.75
2023-04-17T11:34:54.623Z,50.62
2023-04-17T11:35:54.642Z,33.75
2023-04-17T11:36:54.609Z,22.50
2023-04-17T11:37:54.643Z,22.50
2023-04-17T11:38:55.444Z,22.50
2023-04-17T11:39:54.591Z,56.25
2023-04-17T11:40:54.566Z,56.25
2023-04-17T11:41:54.552Z,50.62
2023-04-17T11:42:54.542Z,50.62
2023-04-17T11:43:54.569Z,56.25
2023-04-17T11:44:54.517Z,33.75
2023-04-17T11:45:54.600Z,50.62
2023-04-17T11:46:54.529Z,28.12
2023-04-17T11:47:54.527Z,22.50
2023-04-17T11:48:54.489Z,22.50
2023-04-17T11:49:54.486Z,33.75
2023-04-17T11:50:54.451Z,67.50
2023-04-17T11:51:54.470Z,50.62
2023-04-17T11:52:54.466Z,67.50
2023-04-17T11:53:54.456Z,61.88
2023-04-17T11:54:54.411Z,67.50
2023-04-17T11:55:54.416Z,61.88
2023-04-17T11:56:54.412Z,16.88
2023-04-17T11:57:54.378Z,16.88
2023-04-17T11:58:54.366Z,16.88
2023-04-17T11:59:54.353Z,16.88
2023-04-17T12:00:54.363Z,16.88
2023-04-17T12:01:54.384Z,16.88
2023-04-17T12:02:54.428Z,16.88
2023-04-17T12:03:54.559Z,16.88
2023-04-17T12:04:54.415Z,16.88
2023-04-17T12:05:54.358Z,16.88
2023-04-17T12:06:54.278Z,16.88
2023-04-17T12:07:54.285Z,22.50
2023-04-17T12:08:54.286Z,22.50
2023-04-17T12:09:54.286Z,22.50
2023-04-17T12:10:54.250Z,67.50
2023-04-17T12:11:54.239Z,73.12
2023-04-17T12:12:54.218Z,67.50
2023-04-17T12:13:54.226Z,67.50
2023-04-17T12:14:54.206Z,67.50
2023-04-17T12:15:54.193Z,61.88
2023-04-17T12:16:54.161Z,28.12
2023-04-17T12:17:54.177Z,61.88
2023-04-17T12:18:54.157Z,61.88
2023-04-17T12:19:54.158Z,61.88
2023-04-17T12:20:54.122Z,45.00
2023-04-17T12:21:54.110Z,22.50
2023-04-17T12:22:55.028Z,22.50
2023-04-17T12:23:54.142Z,22.50
2023-04-17T12:24:54.114Z,22.50
2023-04-17T12:25:54.097Z,16.88
2023-04-17T12:26:54.063Z,16.88
2023-04-17T12:27:54.050Z,16.88
2023-04-17T12:28:54.037Z,16.88
2023-04-17T12:29:54.057Z,16.88
2023-04-17T12:30:54.032Z,16.88
2023-04-17T12:31:54.058Z,11.25
2023-04-17T12:32:54.095Z,11.25
2023-04-17T12:33:54.576Z,11.25
2023-04-17T12:34:53.980Z,11.25
2023-04-17T12:35:54.015Z,11.25
2023-04-17T12:36:53.965Z,5.62
2023-04-17T12:37:53.997Z,5.62
2023-04-17T12:38:53.969Z,5.62
2023-04-17T12:39:54.232Z,5.62
2023-04-17T12:40:53.947Z,5.62
2023-04-17T12:41:53.925Z,5.62
2023-04-17T12:42:54.042Z,11.25
2023-04-17T12:43:53.868Z,11.25
2023-04-17T12:44:53.873Z,11.25
2023-04-17T12:45:53.909Z,11.25
2023-04-17T12:46:54.565Z,11.25
2023-04-17T12:47:54.126Z,11.25
2023-04-17T12:48:54.565Z,11.25
2023-04-17T12:49:53.830Z,11.25
2023-04-17T12:50:53.810Z,16.88
2023-04-17T12:51:54.112Z,16.88
2023-04-17T12:52:53.819Z,16.88
2023-04-17T12:53:53.770Z,16.88
2023-04-17T12:54:53.785Z,16.88
2023-04-17T12:55:53.748Z,16.88
2023-04-17T12:56:53.728Z,16.88
2023-04-17T12:57:57.110Z,16.88
2023-04-17T12:58:53.788Z,16.88
2023-04-17T12:59:53.711Z,16.88
2023-04-17T13:00:53.704Z,16.88
2023-04-17T13:01:57.172Z,16.88
2023-04-17T13:02:53.794Z,16.88
2023-04-17T13:03:53.880Z,22.50
2023-04-17T13:04:53.887Z,22.50
2023-04-17T13:05:53.632Z,28.12
2023-04-17T13:06:53.662Z,22.50
2023-04-17T13:07:53.608Z,22.50